createdAt,value
2018-03-16T00:01:22.808Z,1.80
2018-03-16T00:03:51.165Z,1.80
2018-03-16T00:06:18.892Z,1.70
2018-03-16T00:08:46.419Z,1.80
2018-03-16T00:11:14.741Z,1.80
2018-03-16T00:13:42.323Z,1.80
2018-03-16T00:16:09.906Z,1.80
2018-03-16T00:18:37.447Z,1.70
2018-03-16T00:21:05.970Z,1.80
2018-03-16T00:23:33.523Z,1.70
2018-03-16T00:26:01.054Z,1.80
2018-03-16T00:28:29.411Z,1.80
2018-03-16T00:30:56.974Z,1.80
2018-03-16T00:33:24.510Z,1.80
2018-03-16T00:35:52.990Z,1.80
2018-03-16T00:38:21.285Z,1.80
2018-03-16T00:40:49.614Z,1.70
2018-03-16T00:43:17.187Z,1.70
2018-03-16T00:45:44.726Z,1.80
2018-03-16T00:48:13.021Z,1.70
2018-03-16T00:50:40.615Z,1.70
2018-03-16T00:53:08.142Z,1.70
2018-03-16T00:55:36.438Z,1.70
2018-03-16T00:58:04.946Z,1.80
2018-03-16T01:00:32.580Z,1.70
2018-03-16T01:03:00.127Z,1.80
2018-03-16T01:05:27.895Z,1.80
2018-03-16T01:07:55.423Z,1.80
2018-03-16T01:10:23.753Z,1.80
2018-03-16T01:12:51.422Z,1.80
2018-03-16T01:15:18.958Z,1.70
2018-03-16T01:17:47.251Z,1.80
2018-03-16T01:20:15.675Z,1.80
2018-03-16T01:22:43.247Z,1.80
2018-03-16T01:25:10.824Z,1.80
2018-03-16T01:27:38.570Z,1.80
2018-03-16T01:30:06.102Z,1.70
2018-03-16T01:32:33.836Z,1.70
2018-03-16T01:35:01.618Z,1.70
2018-03-16T01:37:29.328Z,1.70
2018-03-16T01:39:56.954Z,1.70
2018-03-16T01:42:24.526Z,1.70
2018-03-16T01:44:52.049Z,1.70
2018-03-16T01:47:21.100Z,1.70
2018-03-16T01:49:48.682Z,1.70
2018-03-16T01:52:16.235Z,1.70
2018-03-16T01:54:43.916Z,1.70
2018-03-16T01:57:11.570Z,1.70
2018-03-16T01:59:39.872Z,1.70
2018-03-16T02:02:07.402Z,1.70
2018-03-16T02:04:34.967Z,1.60
2018-03-16T02:07:02.507Z,1.60
2018-03-16T02:09:30.038Z,1.60
2018-03-16T02:11:57.712Z,1.60
2018-03-16T02:14:26.021Z,1.60
2018-03-16T02:16:53.542Z,1.60
2018-03-16T02:19:21.188Z,1.60
2018-03-16T02:21:48.739Z,1.60
2018-03-16T02:24:16.274Z,1.60
2018-03-16T02:26:44.815Z,1.50
2018-03-16T02:29:12.359Z,1.50
2018-03-16T02:31:39.954Z,1.60
2018-03-16T02:34:07.626Z,1.60
2018-03-16T02:36:35.173Z,1.60
2018-03-16T02:39:03.576Z,1.60
2018-03-16T02:41:31.148Z,1.50
2018-03-16T02:43:58.677Z,1.50
2018-03-16T02:46:26.210Z,1.50
2018-03-16T02:48:53.861Z,1.50
2018-03-16T02:51:21.391Z,1.50
2018-03-16T02:53:48.919Z,1.40
2018-03-16T02:56:16.499Z,1.40
2018-03-16T02:58:44.031Z,1.40
2018-03-16T03:01:12.323Z,1.40
2018-03-16T03:03:40.023Z,1.30
2018-03-16T03:06:07.559Z,1.30
2018-03-16T03:08:35.096Z,1.30
2018-03-16T03:11:02.787Z,1.30
2018-03-16T03:13:31.123Z,1.30
2018-03-16T03:15:58.662Z,1.30
2018-03-16T03:18:26.994Z,1.30
2018-03-16T03:20:54.565Z,1.20
2018-03-16T03:23:22.105Z,1.20
2018-03-16T03:25:49.804Z,1.20
2018-03-16T03:28:17.340Z,1.10
2018-03-16T03:30:44.871Z,1.10
2018-03-16T03:33:12.606Z,1.10
2018-03-16T03:35:40.131Z,1.00
2018-03-16T03:38:07.662Z,1.00
2018-03-16T03:40:35.434Z,1.00
2018-03-16T03:43:02.989Z,1.00
2018-03-16T03:45:30.514Z,1.00
2018-03-16T03:47:59.588Z,1.00
2018-03-16T03:50:27.162Z,1.00
2018-03-16T03:52:54.685Z,1.00
2018-03-16T03:55:22.285Z,0.90
2018-03-16T03:57:49.810Z,0.80
2018-03-16T04:00:17.329Z,0.90
2018-03-16T04:02:44.923Z,0.90
2018-03-16T04:05:12.451Z,0.80
2018-03-16T04:07:39.987Z,0.80
2018-03-16T04:10:07.762Z,0.80
2018-03-16T04:12:35.334Z,0.70
2018-03-16T04:15:03.056Z,0.70
2018-03-16T04:17:30.634Z,0.70
2018-03-16T04:19:58.159Z,0.70
2018-03-16T04:22:25.686Z,0.70
2018-03-16T04:24:53.341Z,0.70
2018-03-16T04:27:20.866Z,0.70
2018-03-16T04:29:48.413Z,0.60
2018-03-16T04:32:15.998Z,0.70
2018-03-16T04:34:43.630Z,0.70
2018-03-16T04:37:11.163Z,0.70
2018-03-16T04:39:39.502Z,0.70
2018-03-16T04:42:07.179Z,0.70
2018-03-16T04:44:34.739Z,0.60
2018-03-16T04:47:02.310Z,0.60
2018-03-16T04:49:29.837Z,0.60
2018-03-16T04:51:57.410Z,0.70
2018-03-16T04:54:25.119Z,0.60
2018-03-16T04:56:52.650Z,0.50
2018-03-16T04:59:20.189Z,0.50
2018-03-16T05:01:47.962Z,0.50
2018-03-16T05:04:15.535Z,0.50
2018-03-16T05:06:43.076Z,0.50
2018-03-16T05:09:10.654Z,0.50
2018-03-16T05:11:38.190Z,0.50
2018-03-16T05:14:06.613Z,0.50
2018-03-16T05:16:34.191Z,0.50
2018-03-16T05:19:01.714Z,0.50
2018-03-16T05:21:29.242Z,0.50
2018-03-16T05:23:57.102Z,0.50
2018-03-16T05:26:24.629Z,0.50
2018-03-16T05:28:52.160Z,0.50
2018-03-16T05:31:19.730Z,0.50
2018-03-16T05:33:47.259Z,0.50
2018-03-16T05:36:15.584Z,0.50
2018-03-16T05:38:43.276Z,0.50
2018-03-16T05:41:10.838Z,0.50
2018-03-16T05:43:38.368Z,0.50
2018-03-16T05:46:06.703Z,0.50
2018-03-16T05:48:34.245Z,0.40
2018-03-16T05:51:02.611Z,0.40
2018-03-16T05:53:31.049Z,0.50
2018-03-16T05:55:58.579Z,0.50
2018-03-16T05:58:26.882Z,0.50
2018-03-16T06:00:54.522Z,0.50
2018-03-16T06:03:22.038Z,0.50
2018-03-16T06:05:49.619Z,0.40
2018-03-16T06:08:17.279Z,0.50
2018-03-16T06:10:44.794Z,0.50
2018-03-16T06:13:12.317Z,0.50
2018-03-16T06:15:39.894Z,0.40
2018-03-16T06:18:07.414Z,0.40
2018-03-16T06:20:35.047Z,0.40
2018-03-16T06:23:02.706Z,0.40
2018-03-16T06:25:30.230Z,0.30
2018-03-16T06:27:57.758Z,0.30
2018-03-16T06:30:25.337Z,0.40
2018-03-16T06:32:52.899Z,0.40
2018-03-16T06:35:20.433Z,0.40
2018-03-16T06:37:48.852Z,0.40
2018-03-16T06:40:16.373Z,0.40
2018-03-16T06:42:43.906Z,0.40
2018-03-16T06:45:11.473Z,0.50
2018-03-16T06:47:39.006Z,0.40
2018-03-16T06:50:07.299Z,0.40
2018-03-16T06:52:35.631Z,0.40
2018-03-16T06:55:03.159Z,0.40
2018-03-16T06:57:31.454Z,0.50
2018-03-16T06:59:59.863Z,0.50
2018-03-16T07:02:27.382Z,0.40
2018-03-16T07:04:54.946Z,0.50
2018-03-16T07:07:22.531Z,0.50
2018-03-16T07:09:50.154Z,0.50
2018-03-16T07:12:17.739Z,0.50
2018-03-16T07:14:45.302Z,0.50
2018-03-16T07:17:12.830Z,0.50
2018-03-16T07:19:40.357Z,0.50
2018-03-16T07:22:07.929Z,0.50
2018-03-16T07:24:35.462Z,0.40
2018-03-16T07:27:03.035Z,0.50
2018-03-16T07:29:30.612Z,0.50
2018-03-16T07:31:58.143Z,0.50
2018-03-16T07:34:25.693Z,0.60
2018-03-16T07:36:53.542Z,0.60
2018-03-16T07:39:21.112Z,0.60
2018-03-16T07:41:48.630Z,0.50
2018-03-16T07:44:16.196Z,0.50
2018-03-16T07:46:43.729Z,0.60
2018-03-16T07:49:11.294Z,0.50
2018-03-16T07:51:38.970Z,0.50
2018-03-16T07:54:06.547Z,0.50
2018-03-16T07:56:34.086Z,0.60
2018-03-16T07:59:01.654Z,0.60
2018-03-16T08:01:29.983Z,0.70
2018-03-16T08:03:57.601Z,0.70
2018-03-16T08:06:25.179Z,0.70
2018-03-16T08:08:53.470Z,0.60
2018-03-16T08:11:21.796Z,0.60
2018-03-16T08:13:49.354Z,0.60
2018-03-16T08:16:16.887Z,0.60
2018-03-16T08:18:44.507Z,0.60
2018-03-16T08:21:12.070Z,0.60
2018-03-16T08:23:39.626Z,0.70
2018-03-16T08:26:07.932Z,0.70
2018-03-16T08:28:35.626Z,0.70
2018-03-16T08:31:03.146Z,0.70
2018-03-16T08:33:30.678Z,0.70
2018-03-16T08:35:58.542Z,0.70
2018-03-16T08:38:26.306Z,0.70
2018-03-16T08:40:53.902Z,0.70
2018-03-16T08:43:21.470Z,0.80
2018-03-16T08:45:49.034Z,0.70
2018-03-16T08:48:16.566Z,0.70
2018-03-16T08:50:44.965Z,0.70
2018-03-16T08:53:13.259Z,0.70
2018-03-16T08:55:40.845Z,0.70
2018-03-16T08:58:08.410Z,0.70
2018-03-16T09:00:35.933Z,0.70
2018-03-16T09:03:03.574Z,0.70
2018-03-16T09:05:31.137Z,0.70
2018-03-16T09:07:58.707Z,0.70
2018-03-16T09:10:26.237Z,0.70
2018-03-16T09:12:54.704Z,0.80
2018-03-16T09:15:28.188Z,0.80
2018-03-16T09:17:55.847Z,0.80
2018-03-16T09:20:23.423Z,0.80
2018-03-16T09:22:50.955Z,0.80
2018-03-16T09:25:19.294Z,0.80
2018-03-16T09:27:46.857Z,0.80
2018-03-16T09:30:14.429Z,0.70
2018-03-16T09:32:42.020Z,0.70
2018-03-16T09:35:09.542Z,0.70
2018-03-16T09:37:37.827Z,0.90
2018-03-16T09:40:06.163Z,0.90
2018-03-16T09:42:33.709Z,0.90
2018-03-16T09:45:01.233Z,0.80
2018-03-16T09:47:28.798Z,0.80
2018-03-16T09:49:56.481Z,0.70
2018-03-16T09:52:24.002Z,0.70
2018-03-16T09:55:03.561Z,0.70
2018-03-16T09:57:31.094Z,0.70
2018-03-16T09:59:59.381Z,0.80
2018-03-16T10:02:27.716Z,0.80
2018-03-16T10:04:55.246Z,0.70
2018-03-16T10:07:23.558Z,0.90
2018-03-16T10:09:51.123Z,0.80
2018-03-16T10:12:18.712Z,0.90
2018-03-16T10:14:46.235Z,0.90
2018-03-16T10:17:13.951Z,0.90
2018-03-16T10:19:41.491Z,1.00
2018-03-16T10:22:09.786Z,1.00
2018-03-16T10:24:38.124Z,0.90
2018-03-16T10:27:05.644Z,0.90
2018-03-16T10:29:33.931Z,1.00
2018-03-16T10:32:02.268Z,0.90
2018-03-16T10:34:29.792Z,0.90
2018-03-16T10:36:57.386Z,0.90
2018-03-16T10:39:25.162Z,0.80
2018-03-16T10:41:52.682Z,0.90
2018-03-16T10:44:20.205Z,0.90
2018-03-16T10:46:47.783Z,0.90
2018-03-16T10:49:15.297Z,0.80
2018-03-16T10:51:42.917Z,0.80
2018-03-16T10:54:10.482Z,0.80
2018-03-16T10:56:38.002Z,0.80
2018-03-16T10:59:05.527Z,0.80
2018-03-16T11:01:38.883Z,0.80
2018-03-16T11:04:12.046Z,0.80
2018-03-16T11:06:39.717Z,0.80
2018-03-16T11:09:07.230Z,0.80
2018-03-16T11:11:34.754Z,0.80
2018-03-16T11:14:02.328Z,0.90
2018-03-16T11:16:29.945Z,0.90
2018-03-16T11:18:58.312Z,0.80
2018-03-16T11:21:26.120Z,0.80
2018-03-16T11:23:53.642Z,0.80
2018-03-16T11:26:21.293Z,0.80
2018-03-16T11:28:49.662Z,0.90
2018-03-16T11:31:17.958Z,0.90
2018-03-16T11:33:46.238Z,0.90
2018-03-16T11:36:14.565Z,0.90
2018-03-16T11:38:42.347Z,0.90
2018-03-16T11:41:09.953Z,1.00
2018-03-16T11:43:37.593Z,0.90
2018-03-16T11:46:05.130Z,0.90
2018-03-16T11:48:33.458Z,1.00
2018-03-16T11:51:01.220Z,1.00
2018-03-16T11:53:29.566Z,0.80
2018-03-16T11:55:57.170Z,0.80
2018-03-16T11:58:24.740Z,0.80
2018-03-16T12:00:53.055Z,0.80
2018-03-16T12:03:20.589Z,0.80
2018-03-16T12:05:49.014Z,0.90
2018-03-16T12:08:16.884Z,0.90
2018-03-16T12:10:44.630Z,0.80
2018-03-16T12:13:12.962Z,0.80
2018-03-16T12:15:40.534Z,0.80
2018-03-16T12:18:08.099Z,0.80
2018-03-16T12:20:35.659Z,0.80
2018-03-16T12:23:03.233Z,0.70
2018-03-16T12:25:30.907Z,0.70
2018-03-16T12:27:58.830Z,0.60
2018-03-16T12:30:26.382Z,0.70
2018-03-16T12:32:53.958Z,0.80
2018-03-16T12:35:21.728Z,0.70
2018-03-16T12:37:49.307Z,0.70
2018-03-16T12:40:16.908Z,0.70
2018-03-16T12:42:44.698Z,0.60
2018-03-16T12:45:13.003Z,0.60
2018-03-16T12:47:40.523Z,0.60
2018-03-16T12:50:08.110Z,0.60
2018-03-16T12:52:37.183Z,0.60
2018-03-16T12:55:04.726Z,0.60
2018-03-16T12:57:32.320Z,0.60
2018-03-16T12:59:59.861Z,0.60
2018-03-16T13:02:28.165Z,0.50
2018-03-16T13:04:55.854Z,0.50
2018-03-16T13:07:23.512Z,0.60
2018-03-16T13:09:51.034Z,0.60
2018-03-16T13:12:20.108Z,0.60
2018-03-16T13:14:47.662Z,0.60
2018-03-16T13:17:15.240Z,0.60
2018-03-16T13:19:43.552Z,0.50
2018-03-16T13:22:11.107Z,0.50
2018-03-16T13:24:38.627Z,0.60
2018-03-16T13:27:07.270Z,0.60
2018-03-16T13:29:34.794Z,0.60
2018-03-16T13:32:03.087Z,0.50
2018-03-16T13:34:31.527Z,0.60
2018-03-16T13:36:59.195Z,0.60
2018-03-16T13:39:26.774Z,0.60
2018-03-16T13:41:54.630Z,0.50
2018-03-16T13:44:22.153Z,0.50
2018-03-16T13:46:49.674Z,0.60
2018-03-16T13:49:17.355Z,0.50
2018-03-16T13:51:44.874Z,0.50
2018-03-16T13:54:12.402Z,0.60
2018-03-16T13:56:39.974Z,0.60
2018-03-16T13:59:07.503Z,0.60
2018-03-16T14:01:35.785Z,0.60
2018-03-16T14:04:04.114Z,0.70
2018-03-16T14:06:31.780Z,0.70
2018-03-16T14:08:59.302Z,0.80
2018-03-16T14:11:26.891Z,0.80
2018-03-16T14:13:55.177Z,0.70
2018-03-16T14:16:22.803Z,0.70
2018-03-16T14:18:50.379Z,0.70
2018-03-16T14:21:18.132Z,0.80
2018-03-16T14:23:45.908Z,0.80
2018-03-16T14:26:13.847Z,0.80
2018-03-16T14:28:41.482Z,0.80
2018-03-16T14:31:09.182Z,0.90
2018-03-16T14:33:37.119Z,0.80
2018-03-16T14:36:04.680Z,0.70
2018-03-16T14:38:32.205Z,0.70
2018-03-16T14:41:00.886Z,0.60
2018-03-16T14:43:28.459Z,0.60
2018-03-16T14:45:56.015Z,0.60
2018-03-16T14:48:23.814Z,0.60
2018-03-16T14:50:51.430Z,0.60
2018-03-16T14:53:19.742Z,0.60
2018-03-16T14:55:47.619Z,0.60
2018-03-16T14:58:15.961Z,0.60
2018-03-16T15:00:44.366Z,0.50
2018-03-16T15:03:11.974Z,0.50
2018-03-16T15:05:39.495Z,0.40
2018-03-16T15:08:07.068Z,0.30
2018-03-16T15:10:35.542Z,0.40
2018-03-16T15:13:03.082Z,0.40
2018-03-16T15:15:30.726Z,0.40
2018-03-16T15:17:58.315Z,0.50
2018-03-16T15:20:25.834Z,0.50
2018-03-16T15:22:54.175Z,0.30
2018-03-16T15:25:21.858Z,0.30
2018-03-16T15:27:49.387Z,0.30
2018-03-16T15:30:17.675Z,0.30
2018-03-16T15:32:46.014Z,0.20
2018-03-16T15:35:13.548Z,0.20
2018-03-16T15:37:42.066Z,0.40
2018-03-16T15:40:09.666Z,0.30
2018-03-16T15:42:37.196Z,0.30
2018-03-16T15:45:04.736Z,0.30
2018-03-16T15:47:32.465Z,0.20
2018-03-16T15:50:00.029Z,0.20
2018-03-16T15:52:27.547Z,0.20
2018-03-16T15:54:55.186Z,0.10
2018-03-16T15:57:22.750Z,0.10
2018-03-16T15:59:50.274Z,0.10
2018-03-16T16:02:18.627Z,0.00
2018-03-16T16:04:46.148Z,0.00
2018-03-16T16:07:13.676Z,0.00
2018-03-16T16:09:41.230Z,0.00
2018-03-16T16:12:08.767Z,-0.10
2018-03-16T16:14:36.286Z,-0.10
2018-03-16T16:17:04.039Z,-0.10
2018-03-16T16:19:31.591Z,-0.10
2018-03-16T16:21:59.268Z,-0.10
2018-03-16T16:24:27.390Z,-0.10
2018-03-16T16:26:54.987Z,-0.20
2018-03-16T16:29:22.517Z,-0.20
2018-03-16T16:31:50.178Z,-0.20
2018-03-16T16:34:17.698Z,-0.20
2018-03-16T16:36:45.246Z,-0.20
2018-03-16T16:39:12.889Z,-0.20
2018-03-16T16:41:40.428Z,-0.20
2018-03-16T16:44:08.739Z,-0.10
2018-03-16T16:46:36.432Z,-0.10
2018-03-16T16:49:04.006Z,-0.10
2018-03-16T16:51:31.592Z,-0.10
2018-03-16T16:53:59.346Z,-0.10
2018-03-16T16:56:26.935Z,-0.20
2018-03-16T16:58:54.493Z,-0.30
2018-03-16T17:01:22.162Z,-0.30
2018-03-16T17:03:49.714Z,-0.40
2018-03-16T17:06:17.274Z,-0.40
2018-03-16T17:08:45.619Z,-0.40
2018-03-16T17:11:13.179Z,-0.40
2018-03-16T17:13:40.711Z,-0.50
2018-03-16T17:16:09.298Z,-0.50
2018-03-16T17:18:36.828Z,-0.60
2018-03-16T17:21:04.366Z,-0.50
2018-03-16T17:23:32.140Z,-0.50
2018-03-16T17:25:59.730Z,-0.50
2018-03-16T17:28:27.262Z,-0.60
2018-03-16T17:30:55.599Z,-0.60
2018-03-16T17:33:23.122Z,-0.60
2018-03-16T17:35:51.498Z,-0.60
2018-03-16T17:38:19.323Z,-0.70
2018-03-16T17:40:47.758Z,-0.70
2018-03-16T17:43:15.283Z,-0.70
2018-03-16T17:45:43.358Z,-0.70
2018-03-16T17:48:10.892Z,-0.80
2018-03-16T17:50:38.419Z,-0.80
2018-03-16T17:53:06.186Z,-0.80
2018-03-16T17:55:33.735Z,-0.80
2018-03-16T17:58:01.518Z,-0.80
2018-03-16T18:00:29.134Z,-0.80
2018-03-16T18:02:56.682Z,-0.80
2018-03-16T18:05:24.454Z,-0.80
2018-03-16T18:07:52.015Z,-0.90
2018-03-16T18:10:19.595Z,-0.90
2018-03-16T18:12:47.161Z,-0.90
2018-03-16T18:15:14.840Z,-0.90
2018-03-16T18:17:42.459Z,-0.90
2018-03-16T18:20:10.085Z,-0.90
2018-03-16T18:22:38.776Z,-0.90
2018-03-16T18:25:06.361Z,-0.90
2018-03-16T18:27:33.923Z,-0.90
2018-03-16T18:30:01.502Z,-0.90
2018-03-16T18:32:29.062Z,-1.00
2018-03-16T18:34:56.655Z,-1.10
2018-03-16T18:37:24.614Z,-1.10
2018-03-16T18:39:52.450Z,-1.20
2018-03-16T18:42:19.985Z,-1.20
2018-03-16T18:44:47.578Z,-1.20
2018-03-16T18:47:15.147Z,-1.20
2018-03-16T18:49:42.732Z,-1.30
2018-03-16T18:52:10.373Z,-1.30
2018-03-16T18:54:37.907Z,-1.30
2018-03-16T18:57:05.445Z,-1.30
2018-03-16T18:59:33.017Z,-1.30
2018-03-16T19:02:00.549Z,-1.30
2018-03-16T19:04:28.408Z,-1.30
2018-03-16T19:06:56.183Z,-1.40
2018-03-16T19:09:23.860Z,-1.40
2018-03-16T19:11:51.459Z,-1.40
2018-03-16T19:14:19.026Z,-1.40
2018-03-16T19:16:46.550Z,-1.40
2018-03-16T19:19:15.066Z,-1.30
2018-03-16T19:21:43.048Z,-1.30
2018-03-16T19:24:10.711Z,-1.40
2018-03-16T19:26:38.233Z,-1.40
2018-03-16T19:29:05.974Z,-1.50
2018-03-16T19:31:33.640Z,-1.50
2018-03-16T19:34:01.210Z,-1.60
2018-03-16T19:36:28.883Z,-1.60
2018-03-16T19:38:56.410Z,-1.60
2018-03-16T19:41:23.954Z,-1.70
2018-03-16T19:43:51.526Z,-1.70
2018-03-16T19:46:19.061Z,-1.70
2018-03-16T19:48:46.691Z,-1.70
2018-03-16T19:51:14.524Z,-1.70
2018-03-16T19:53:42.106Z,-1.70
2018-03-16T19:56:09.642Z,-1.70
2018-03-16T19:58:38.172Z,-1.70
2018-03-16T20:01:05.706Z,-1.70
2018-03-16T20:03:33.239Z,-1.70
2018-03-16T20:06:00.811Z,-1.80
2018-03-16T20:08:28.335Z,-1.80
2018-03-16T20:10:55.863Z,-1.60
2018-03-16T20:13:23.502Z,-1.50
2018-03-16T20:15:51.062Z,-1.50
2018-03-16T20:18:18.609Z,-1.70
2018-03-16T20:20:46.204Z,-1.70
2018-03-16T20:23:13.722Z,-1.70
2018-03-16T20:25:41.267Z,-1.70
2018-03-16T20:28:08.860Z,-1.80
2018-03-16T20:30:36.386Z,-1.80
2018-03-16T20:33:03.935Z,-1.80
2018-03-16T20:35:31.646Z,-1.80
2018-03-16T20:38:00.038Z,-1.70
2018-03-16T20:40:27.587Z,-1.80
2018-03-16T20:42:55.359Z,-1.80
2018-03-16T20:45:22.882Z,-1.80
2018-03-16T20:47:50.448Z,-1.80
2018-03-16T20:50:18.806Z,-1.90
2018-03-16T20:52:46.335Z,-2.00
2018-03-16T20:55:14.688Z,-1.90
2018-03-16T20:57:42.325Z,-1.90
2018-03-16T21:00:09.852Z,-1.90
2018-03-16T21:02:37.382Z,-1.90
2018-03-16T21:05:05.143Z,-1.90
2018-03-16T21:07:32.673Z,-2.00
2018-03-16T21:10:00.200Z,-2.00
2018-03-16T21:12:27.787Z,-2.00
2018-03-16T21:14:55.306Z,-2.00
2018-03-16T21:17:22.898Z,-1.90
2018-03-16T21:19:50.572Z,-1.90
2018-03-16T21:22:18.102Z,-2.00
2018-03-16T21:24:46.434Z,-2.00
2018-03-16T21:27:14.098Z,-2.00
2018-03-16T21:29:41.631Z,-2.00
2018-03-16T21:32:09.162Z,-2.00
2018-03-16T21:34:36.755Z,-2.00
2018-03-16T21:37:04.293Z,-2.00
2018-03-16T21:39:31.874Z,-1.90
2018-03-16T21:41:59.650Z,-1.90
2018-03-16T21:44:27.211Z,-2.00
2018-03-16T21:46:54.877Z,-2.00
2018-03-16T21:49:23.150Z,-2.00
2018-03-16T21:51:50.702Z,-2.00
2018-03-16T21:54:18.999Z,-2.00
2018-03-16T21:56:47.338Z,-2.00
2018-03-16T21:59:14.863Z,-2.00
2018-03-16T22:01:43.188Z,-2.00
2018-03-16T22:04:10.751Z,-2.00
2018-03-16T22:06:38.270Z,-2.00
2018-03-16T22:09:05.796Z,-2.00
2018-03-16T22:11:33.470Z,-2.00
2018-03-16T22:14:01.014Z,-2.00
2018-03-16T22:16:29.315Z,-2.00
2018-03-16T22:18:56.886Z,-2.00
2018-03-16T22:21:24.414Z,-2.00
2018-03-16T22:23:51.962Z,-2.00
2018-03-16T22:26:19.771Z,-2.00
2018-03-16T22:28:47.322Z,-2.00
2018-03-16T22:31:15.055Z,-2.00
2018-03-16T22:33:42.618Z,-2.00
2018-03-16T22:36:10.138Z,-2.00
2018-03-16T22:38:37.666Z,-1.90
2018-03-16T22:41:05.279Z,-1.90
2018-03-16T22:43:32.818Z,-1.90
2018-03-16T22:46:01.263Z,-2.00
2018-03-16T22:48:29.009Z,-2.00
2018-03-16T22:50:56.536Z,-2.00
2018-03-16T22:53:24.062Z,-2.00
2018-03-16T22:55:52.399Z,-2.00
2018-03-16T22:58:19.932Z,-2.00
2018-03-16T23:00:47.467Z,-2.10
2018-03-16T23:03:15.162Z,-2.10
2018-03-16T23:05:42.690Z,-2.00
2018-03-16T23:08:10.227Z,-2.10
2018-03-16T23:10:37.814Z,-2.10
2018-03-16T23:13:06.130Z,-2.20
2018-03-16T23:15:33.710Z,-2.20
2018-03-16T23:18:01.302Z,-2.20
2018-03-16T23:20:28.841Z,-2.20
2018-03-16T23:22:56.430Z,-2.30
2018-03-16T23:25:24.009Z,-2.40
2018-03-16T23:27:52.337Z,-2.40
2018-03-16T23:30:20.630Z,-2.40
2018-03-16T23:32:49.074Z,-2.40
2018-03-16T23:35:16.726Z,-2.40
2018-03-16T23:37:44.283Z,-2.40
2018-03-16T23:40:11.863Z,-2.40
2018-03-16T23:42:39.405Z,-2.40
2018-03-16T23:45:07.075Z,-2.30
2018-03-16T23:47:35.607Z,-2.30
2018-03-16T23:50:03.179Z,-2.40
2018-03-16T23:52:30.715Z,-2.40
2018-03-16T23:54:59.255Z,-2.50
2018-03-16T23:57:26.821Z,-2.50
2018-03-16T23:59:54.497Z,-2.50
